Time;durP1;ratioP1;P1;durP2;ratioP2;P2;SDS_P1;SDS_P2;PMS_P1;PMS_P2;Temp;Humidity;BMP_temperature;BMP_pressure;BME280_temperature;BME280_humidity;BME280_pressure;Samples;Min_cycle;Max_cycle;Signal;HPM_P1;HPM_P2
2022/07/10 00:00:03;;;;;;;5.10;2.95;;;;;;;;;;10491054;28;20103;-75
2022/07/10 00:05:07;;;;;;;5.07;2.95;;;;;;;;;;10483823;28;20511;-75
2022/07/10 00:10:11;;;;;;;3.67;2.80;;;;;;;;;;10492513;28;20106;-76
2022/07/10 00:15:15;;;;;;;6.47;3.75;;;;;;;;;;10475355;28;20040;-76
2022/07/10 00:20:17;;;;;;;;;;;;;;;;;;10477006;28;20075;-75
2022/07/10 00:25:21;;;;;;;6.05;3.97;;;;;;;;;;10477720;28;19963;-75
2022/07/10 00:30:24;;;;;;;5.68;3.75;;;;;;;;;;10493021;28;20403;-75
2022/07/10 00:35:28;;;;;;;6.75;3.80;;;;;;;;;;10452456;28;20040;-76
2022/07/10 00:40:32;;;;;;;8.32;4.30;;;;;;;;;;10488396;28;20060;-76
2022/07/10 00:45:34;;;;;;;9.20;4.90;;;;;;;;;;10488736;28;20086;-75
2022/07/10 00:50:38;;;;;;;5.50;4.20;;;;;;;;;;10470717;28;20395;-76
2022/07/10 00:55:42;;;;;;;7.88;4.35;;;;;;;;;;10473297;28;20072;-74
2022/07/10 01:00:47;;;;;;;9.73;5.00;;;;;;;;;;10481496;28;20036;-74
2022/07/10 01:05:50;;;;;;;5.75;4.45;;;;;;;;;;10474732;28;20044;-73
2022/07/10 01:10:54;;;;;;;;;;;;;;;;;;10482016;28;20086;-73
2022/07/10 01:15:59;;;;;;;8.20;4.33;;;;;;;;;;10484223;28;21570;-75
2022/07/10 01:21:04;;;;;;;8.70;4.53;;;;;;;;;;10481310;28;20120;-73
2022/07/10 01:26:12;;;;;;;6.45;4.28;;;;;;;;;;10489786;28;20550;-76
2022/07/10 01:31:15;;;;;;;;;;;;;;;;;;10494256;28;20044;-75
2022/07/10 01:36:20;;;;;;;9.55;4.90;;;;;;;;;;10489551;28;19928;-74
2022/07/10 01:41:23;;;;;;;8.57;4.82;;;;;;;;;;10477006;28;20028;-76
2022/07/10 01:46:26;;;;;;;10.38;4.88;;;;;;;;;;10479097;28;20048;-73
2022/07/10 01:51:30;;;;;;;6.57;4.35;;;;;;;;;;10491219;28;20845;-74
2022/07/10 01:56:33;;;;;;;7.10;4.55;;;;;;;;;;10490050;28;20101;-75
2022/07/10 02:01:36;;;;;;;9.23;4.32;;;;;;;;;;10492247;28;20111;-74
2022/07/10 02:06:39;;;;;;;;;;;;;;;;;;10492622;28;20058;-75
2022/07/10 02:11:43;;;;;;;6.93;4.18;;;;;;;;;;10493465;28;19930;-74
2022/07/10 02:16:46;;;;;;;8.90;4.45;;;;;;;;;;10489579;28;20063;-76
2022/07/10 02:21:49;;;;;;;7.33;4.43;;;;;;;;;;10474194;28;20060;-76
2022/07/10 02:26:55;;;;;;;6.57;4.50;;;;;;;;;;10492349;28;20044;-77
2022/07/10 02:31:57;;;;;;;7.72;4.40;;;;;;;;;;10469424;28;20070;-75
2022/07/10 02:37:00;;;;;;;5.27;3.63;;;;;;;;;;10477572;28;20875;-76
2022/07/10 02:42:05;;;;;;;7.43;4.40;;;;;;;;;;10493541;28;20779;-75
2022/07/10 02:47:07;;;;;;;7.82;4.20;;;;;;;;;;10490380;28;20084;-75
2022/07/10 02:52:10;;;;;;;7.87;4.53;;;;;;;;;;10493204;28;20318;-77
2022/07/10 02:57:14;;;;;;;7.67;4.80;;;;;;;;;;10498429;28;20036;-75
2022/07/10 03:02:17;;;;;;;11.00;5.03;;;;;;;;;;10493310;28;20037;-73
2022/07/10 03:07:20;;;;;;;7.77;4.80;;;;;;;;;;10474321;28;20127;-75
2022/07/10 03:12:24;;;;;;;7.70;4.50;;;;;;;;;;10492927;28;20029;-75
2022/07/10 03:17:27;;;;;;;7.68;4.35;;;;;;;;;;10485631;28;20047;-77
2022/07/10 03:22:30;;;;;;;8.60;5.50;;;;;;;;;;10477119;28;20133;-73
2022/07/10 03:27:34;;;;;;;9.30;5.30;;;;;;;;;;10485060;28;20415;-76
2022/07/10 03:32:37;;;;;;;8.05;5.03;;;;;;;;;;10470967;28;20064;-75
2022/07/10 03:37:40;;;;;;;10.63;6.07;;;;;;;;;;10470517;28;20040;-73
2022/07/10 03:42:44;;;;;;;10.53;4.73;;;;;;;;;;10501975;28;20037;-75
2022/07/10 03:47:47;;;;;;;8.10;5.07;;;;;;;;;;10491646;28;20483;-75
2022/07/10 03:52:50;;;;;;;9.63;5.57;;;;;;;;;;10476778;28;20060;-76
2022/07/10 03:57:54;;;;;;;10.57;5.93;;;;;;;;;;10477802;28;20077;-75
2022/07/10 04:02:57;;;;;;;9.05;5.82;;;;;;;;;;10482696;28;20296;-73
2022/07/10 04:08:01;;;;;;;9.57;5.60;;;;;;;;;;10477492;28;20128;-77
2022/07/10 04:13:05;;;;;;;7.32;4.93;;;;;;;;;;10470354;28;20173;-76
2022/07/10 04:18:08;;;;;;;10.18;5.15;;;;;;;;;;10468593;28;20075;-75
2022/07/10 04:23:10;;;;;;;7.73;4.83;;;;;;;;;;10469777;28;20064;-73
2022/07/10 04:28:15;;;;;;;7.53;3.93;;;;;;;;;;10486519;28;20230;-73
2022/07/10 04:33:17;;;;;;;6.90;4.45;;;;;;;;;;10473486;28;20123;-74
2022/07/10 04:38:20;;;;;;;6.95;4.85;;;;;;;;;;10467256;28;20522;-73
2022/07/10 04:43:24;;;;;;;7.60;4.77;;;;;;;;;;10481929;28;20028;-74
2022/07/10 04:48:27;;;;;;;6.70;3.97;;;;;;;;;;10477094;28;20566;-74
2022/07/10 04:53:30;;;;;;;6.50;4.20;;;;;;;;;;10473165;28;20205;-74
2022/07/10 04:58:34;;;;;;;8.00;4.67;;;;;;;;;;10504685;28;20416;-75
2022/07/10 05:03:37;;;;;;;7.15;4.57;;;;;;;;;;10502317;28;20032;-75
2022/07/10 05:08:39;;;;;;;10.47;6.20;;;;;;;;;;10497083;28;20082;-75
2022/07/10 05:13:46;;;;;;;8.32;4.93;;;;;;;;;;10497014;28;20109;-76
2022/07/10 05:18:48;;;;;;;7.43;5.05;;;;;;;;;;10498736;28;20744;-74
2022/07/10 05:23:51;;;;;;;8.03;5.20;;;;;;;;;;10492885;28;20032;-75
2022/07/10 05:28:56;;;;;;;8.45;5.53;;;;;;;;;;10497437;28;20047;-74
2022/07/10 05:33:58;;;;;;;11.55;6.03;;;;;;;;;;10482399;28;20041;-75
2022/07/10 05:39:01;;;;;;;11.33;5.43;;;;;;;;;;10476696;28;20400;-75
2022/07/10 05:44:05;;;;;;;10.70;5.57;;;;;;;;;;10494912;28;20032;-74
2022/07/10 05:49:08;;;;;;;9.48;5.65;;;;;;;;;;10498134;28;20135;-73
2022/07/10 05:54:11;;;;;;;9.80;6.20;;;;;;;;;;10490326;28;20127;-74
2022/07/10 05:59:15;;;;;;;9.32;5.63;;;;;;;;;;10493265;28;20046;-76
2022/07/10 06:04:18;;;;;;;9.85;5.90;;;;;;;;;;10473131;28;20059;-75
2022/07/10 06:09:21;;;;;;;9.67;6.10;;;;;;;;;;10475253;28;20420;-75
2022/07/10 06:14:25;;;;;;;8.18;5.47;;;;;;;;;;10492534;28;20132;-76
2022/07/10 06:19:29;;;;;;;9.05;6.15;;;;;;;;;;10478234;28;20105;-75
2022/07/10 06:24:32;;;;;;;8.95;6.10;;;;;;;;;;10496581;28;21345;-75
2022/07/10 06:29:36;;;;;;;9.38;6.03;;;;;;;;;;10495738;28;20037;-75
2022/07/10 06:34:40;;;;;;;9.13;5.93;;;;;;;;;;10492837;28;20040;-75
2022/07/10 06:39:42;;;;;;;8.68;5.72;;;;;;;;;;10492405;28;20036;-73
2022/07/10 06:44:47;;;;;;;9.23;6.18;;;;;;;;;;10471045;28;20135;-75
2022/07/10 06:49:50;;;;;;;11.45;6.40;;;;;;;;;;10495410;28;20036;-75
2022/07/10 06:54:53;;;;;;;9.38;6.43;;;;;;;;;;10482885;28;20043;-76
2022/07/10 06:59:57;;;;;;;12.07;6.50;;;;;;;;;;10475680;28;20114;-75
2022/07/10 07:05:00;;;;;;;9.18;6.07;;;;;;;;;;10466537;28;20094;-75
2022/07/10 07:10:04;;;;;;;10.05;6.63;;;;;;;;;;10482249;28;20154;-76
2022/07/10 07:15:09;;;;;;;7.85;5.38;;;;;;;;;;10465607;28;20047;-77
2022/07/10 07:25:32;;;;;;;8.35;5.57;;;;;;;;;;10496517;28;20041;-75
2022/07/10 07:30:37;;;;;;;8.20;5.20;;;;;;;;;;10526582;28;20040;-79
2022/07/10 07:35:40;;;;;;;8.13;5.20;;;;;;;;;;10502760;28;20044;-78
2022/07/10 07:40:44;;;;;;;6.57;4.70;;;;;;;;;;10487965;28;20035;-80
2022/07/10 07:45:49;;;;;;;8.60;4.75;;;;;;;;;;10475537;28;20096;-78
2022/07/10 07:50:53;;;;;;;7.50;4.55;;;;;;;;;;10497607;28;20040;-77
2022/07/10 07:55:56;;;;;;;7.93;4.13;;;;;;;;;;10500350;28;20267;-76
2022/07/10 08:01:01;;;;;;;5.53;3.83;;;;;;;;;;10480870;28;20496;-79
2022/07/10 08:06:04;;;;;;;7.20;3.65;;;;;;;;;;10497317;28;20396;-80
2022/07/10 08:11:07;;;;;;;5.47;3.63;;;;;;;;;;10493838;28;20108;-79
2022/07/10 08:16:10;;;;;;;;;;;;;;;;;;10477840;28;20028;-77
2022/07/10 08:21:14;;;;;;;4.75;2.90;;;;;;;;;;10491181;28;20392;-80
2022/07/10 08:26:17;;;;;;;3.40;2.55;;;;;;;;;;10493980;28;20131;-78
2022/07/10 08:31:20;;;;;;;3.88;2.28;;;;;;;;;;10490773;28;20028;-77
2022/07/10 08:36:24;;;;;;;4.22;2.65;;;;;;;;;;10492757;28;20041;-77
2022/07/10 08:41:50;;;;;;;4.20;2.50;;;;;;;;;;10476566;28;20039;-76
2022/07/10 08:46:52;;;;;;;4.63;2.90;;;;;;;;;;10491770;28;20044;-77
2022/07/10 08:51:59;;;;;;;4.47;2.47;;;;;;;;;;10466264;28;20028;-77
2022/07/10 08:57:03;;;;;;;3.95;2.10;;;;;;;;;;10491235;28;20036;-78
2022/07/10 09:02:05;;;;;;;6.07;2.25;;;;;;;;;;10469849;28;20404;-76
2022/07/10 09:07:09;;;;;;;3.22;2.30;;;;;;;;;;10490054;28;20107;-76
2022/07/10 09:12:12;;;;;;;5.00;2.88;;;;;;;;;;10490228;28;20041;-76
2022/07/10 09:17:15;;;;;;;3.67;2.15;;;;;;;;;;10483116;28;20055;-76
2022/07/10 09:22:22;;;;;;;5.97;2.20;;;;;;;;;;10488620;28;20094;-77
2022/07/10 09:27:26;;;;;;;3.45;1.90;;;;;;;;;;10475002;28;20028;-77
2022/07/10 09:32:29;;;;;;;3.25;2.28;;;;;;;;;;10476434;28;20048;-76
2022/07/10 09:37:33;;;;;;;5.82;3.67;;;;;;;;;;10496927;28;20024;-78
2022/07/10 09:42:37;;;;;;;3.25;2.00;;;;;;;;;;10478682;28;20122;-77
2022/07/10 09:47:40;;;;;;;5.18;2.30;;;;;;;;;;10478766;28;20607;-75
2022/07/10 09:52:44;;;;;;;4.75;2.05;;;;;;;;;;10491343;28;20040;-77
2022/07/10 09:57:50;;;;;;;2.15;1.90;;;;;;;;;;10474581;28;20087;-77
2022/07/10 10:02:55;;;;;;;6.35;2.20;;;;;;;;;;10471564;28;20099;-76
2022/07/10 10:08:02;;;;;;;3.35;1.60;;;;;;;;;;10491191;28;20054;-77
2022/07/10 10:13:07;;;;;;;4.22;2.20;;;;;;;;;;10485727;28;20032;-76
2022/07/10 10:18:11;;;;;;;2.67;2.00;;;;;;;;;;10487797;28;20086;-77
2022/07/10 10:23:17;;;;;;;3.08;2.20;;;;;;;;;;10478351;28;20034;-77
2022/07/10 10:28:23;;;;;;;3.20;1.50;;;;;;;;;;10477786;28;20645;-77
2022/07/10 10:33:44;;;;;;;3.58;2.28;;;;;;;;;;10477298;28;20048;-77
2022/07/10 10:38:46;;;;;;;;;;;;;;;;;;10495360;28;20162;-76
2022/07/10 10:44:20;;;;;;;3.65;2.03;;;;;;;;;;10473907;28;20288;-77
2022/07/10 10:49:25;;;;;;;4.38;2.45;;;;;;;;;;10495221;28;20078;-76
2022/07/10 10:54:29;;;;;;;3.13;2.05;;;;;;;;;;10470230;28;20102;-77
2022/07/10 10:59:56;;;;;;;2.35;1.90;;;;;;;;;;10486907;28;20036;-76
2022/07/10 11:05:13;;;;;;;4.57;1.60;;;;;;;;;;10454072;28;20060;-77
2022/07/10 11:10:31;;;;;;;2.42;1.60;;;;;;;;;;10498644;28;20479;-76
2022/07/10 11:15:36;;;;;;;2.53;1.88;;;;;;;;;;10493910;28;20060;-77
2022/07/10 11:20:40;;;;;;;3.90;1.55;;;;;;;;;;10476217;28;20068;-78
2022/07/10 11:26:00;;;;;;;3.13;1.83;;;;;;;;;;10498670;28;20044;-77
2022/07/10 11:31:03;;;;;;;3.28;1.83;;;;;;;;;;10491971;28;20040;-78
2022/07/10 11:36:10;;;;;;;2.90;1.50;;;;;;;;;;10492468;28;20044;-78
2022/07/10 11:41:15;;;;;;;2.92;1.80;;;;;;;;;;10500229;28;20076;-78
2022/07/10 11:46:20;;;;;;;4.70;1.95;;;;;;;;;;10492672;28;20695;-78
2022/07/10 11:51:24;;;;;;;4.00;1.95;;;;;;;;;;10482434;28;20044;-78
2022/07/10 11:56:31;;;;;;;3.35;1.42;;;;;;;;;;10484436;28;20350;-77
2022/07/10 12:01:35;;;;;;;3.50;1.80;;;;;;;;;;10488506;28;20056;-77
2022/07/10 12:06:40;;;;;;;6.25;1.70;;;;;;;;;;10479356;28;20492;-77
2022/07/10 12:11:45;;;;;;;2.15;1.73;;;;;;;;;;10510737;28;20535;-77
2022/07/10 12:16:49;;;;;;;3.35;1.70;;;;;;;;;;10484996;28;20506;-77
2022/07/10 12:21:52;;;;;;;6.47;1.75;;;;;;;;;;10494791;28;20635;-77
2022/07/10 12:27:01;;;;;;;2.38;1.70;;;;;;;;;;10492558;28;20440;-78
2022/07/10 12:32:04;;;;;;;4.03;1.50;;;;;;;;;;10503364;28;20044;-78
2022/07/10 12:37:08;;;;;;;3.53;1.70;;;;;;;;;;10497185;28;20494;-77
2022/07/10 12:42:14;;;;;;;4.20;1.80;;;;;;;;;;10500136;28;20060;-78
2022/07/10 12:47:17;;;;;;;3.25;1.75;;;;;;;;;;10493677;28;20044;-78
2022/07/10 12:52:21;;;;;;;2.88;1.50;;;;;;;;;;10489673;28;20035;-77
2022/07/10 12:57:29;;;;;;;3.13;1.40;;;;;;;;;;10480007;28;20060;-77
2022/07/10 13:02:32;;;;;;;2.67;1.83;;;;;;;;;;10488544;28;20040;-78
2022/07/10 13:07:36;;;;;;;2.40;1.52;;;;;;;;;;10501629;28;20498;-77
2022/07/10 13:12:40;;;;;;;2.30;1.58;;;;;;;;;;10482767;28;20044;-78
2022/07/10 13:17:44;;;;;;;3.08;1.40;;;;;;;;;;10505009;28;20753;-78
2022/07/10 13:22:47;;;;;;;3.92;1.40;;;;;;;;;;10486925;28;20041;-76
2022/07/10 13:27:52;;;;;;;4.05;1.60;;;;;;;;;;10488470;28;20063;-77
2022/07/10 13:32:54;;;;;;;4.35;1.70;;;;;;;;;;10491456;28;20045;-77
2022/07/10 13:37:59;;;;;;;2.35;1.27;;;;;;;;;;10479100;28;20040;-78
2022/07/10 13:43:05;;;;;;;4.22;1.13;;;;;;;;;;10493333;28;20106;-77
2022/07/10 13:48:08;;;;;;;2.30;1.40;;;;;;;;;;10493423;28;20572;-77
2022/07/10 13:53:11;;;;;;;2.30;1.25;;;;;;;;;;10504405;28;20028;-77
2022/07/10 13:58:16;;;;;;;2.40;1.23;;;;;;;;;;10488419;28;20374;-78
2022/07/10 14:03:19;;;;;;;1.75;1.20;;;;;;;;;;10498448;28;20044;-77
2022/07/10 14:08:22;;;;;;;1.55;1.15;;;;;;;;;;10491080;28;20128;-78
2022/07/10 14:13:27;;;;;;;2.42;1.33;;;;;;;;;;10477533;28;20139;-78
2022/07/10 14:18:37;;;;;;;1.05;0.98;;;;;;;;;;10475194;28;20047;-77
2022/07/10 14:23:43;;;;;;;4.68;1.35;;;;;;;;;;10496453;28;20028;-77
2022/07/10 14:28:48;;;;;;;3.72;1.45;;;;;;;;;;10467825;28;20043;-78
2022/07/10 14:33:51;;;;;;;6.57;1.48;;;;;;;;;;10468839;28;20036;-77
2022/07/10 14:38:54;;;;;;;2.55;1.20;;;;;;;;;;10503208;28;20123;-77
2022/07/10 14:43:58;;;;;;;3.15;1.42;;;;;;;;;;10493343;28;20524;-78
2022/07/10 14:49:01;;;;;;;2.25;1.10;;;;;;;;;;10485793;28;20051;-79
2022/07/10 14:54:04;;;;;;;3.90;1.13;;;;;;;;;;10478032;28;20210;-78
2022/07/10 14:59:08;;;;;;;1.85;1.20;;;;;;;;;;10498883;28;20079;-78
2022/07/10 15:04:18;;;;;;;1.85;0.98;;;;;;;;;;10479011;28;20124;-78
2022/07/10 15:09:21;;;;;;;1.00;0.90;;;;;;;;;;10489057;28;20067;-76
2022/07/10 15:14:27;;;;;;;1.80;1.10;;;;;;;;;;10494536;28;20462;-78
2022/07/10 15:19:30;;;;;;;2.42;1.10;;;;;;;;;;10486681;28;20167;-77
2022/07/10 15:24:33;;;;;;;1.33;1.23;;;;;;;;;;10488056;28;20058;-77
2022/07/10 15:29:35;;;;;;;;;;;;;;;;;;10472760;28;20111;-77
2022/07/10 15:34:40;;;;;;;3.17;1.63;;;;;;;;;;10483704;28;20304;-77
2022/07/10 15:39:43;;;;;;;3.63;1.40;;;;;;;;;;10481256;28;20126;-78
2022/07/10 15:44:45;;;;;;;2.70;1.10;;;;;;;;;;10492041;28;20036;-77
2022/07/10 15:49:49;;;;;;;1.48;1.02;;;;;;;;;;10477353;28;20109;-79
2022/07/10 15:54:53;;;;;;;3.20;1.58;;;;;;;;;;10493141;28;20020;-77
2022/07/10 15:59:56;;;;;;;1.67;0.90;;;;;;;;;;10479414;28;20064;-77
2022/07/10 16:05:00;;;;;;;5.88;2.17;;;;;;;;;;10477729;28;20060;-77
2022/07/10 16:10:03;;;;;;;2.05;1.15;;;;;;;;;;10496311;28;20032;-76
2022/07/10 16:15:07;;;;;;;3.75;1.20;;;;;;;;;;10473716;28;20062;-78
2022/07/10 16:20:19;;;;;;;1.75;1.00;;;;;;;;;;10472084;28;20043;-77
2022/07/10 16:30:44;;;;;;;1.40;0.82;;;;;;;;;;10492104;28;20118;-78
2022/07/10 16:35:48;;;;;;;3.47;1.20;;;;;;;;;;10474351;28;20048;-76
2022/07/10 16:40:51;;;;;;;2.63;1.27;;;;;;;;;;10474682;28;20454;-76
2022/07/10 16:45:53;;;;;;;3.15;1.20;;;;;;;;;;10470548;28;20515;-76
2022/07/10 16:50:58;;;;;;;7.22;4.63;;;;;;;;;;10503663;28;20516;-79
2022/07/10 16:56:01;;;;;;;2.35;1.15;;;;;;;;;;10508492;28;20040;-77
2022/07/10 17:01:04;;;;;;;3.13;0.85;;;;;;;;;;10483012;28;20036;-76
2022/07/10 17:06:08;;;;;;;3.80;1.30;;;;;;;;;;10497676;28;20544;-75
2022/07/10 17:11:10;;;;;;;0.63;0.60;;;;;;;;;;10484126;28;20060;-77
2022/07/10 17:16:13;;;;;;;2.42;0.90;;;;;;;;;;10498097;28;20052;-77
2022/07/10 17:21:18;;;;;;;5.95;1.65;;;;;;;;;;10483693;28;20119;-77
2022/07/10 17:26:41;;;;;;;3.97;1.67;;;;;;;;;;10483940;28;20060;-77
2022/07/10 17:31:44;;;;;;;2.72;1.30;;;;;;;;;;10499006;28;20040;-77
2022/07/10 17:36:49;;;;;;;3.58;1.00;;;;;;;;;;10484364;28;20059;-77
2022/07/10 17:41:52;;;;;;;2.00;0.90;;;;;;;;;;10486982;28;20495;-77
2022/07/10 17:46:56;;;;;;;2.53;1.20;;;;;;;;;;10484692;28;20029;-77
2022/07/10 17:51:58;;;;;;;;;;;;;;;;;;10480159;28;20540;-77
2022/07/10 17:57:04;;;;;;;3.58;1.10;;;;;;;;;;10508600;28;20034;-76
2022/07/10 18:02:07;;;;;;;4.85;1.10;;;;;;;;;;10486065;28;20449;-77
2022/07/10 18:07:10;;;;;;;2.90;1.00;;;;;;;;;;10492532;28;20036;-77
2022/07/10 18:12:14;;;;;;;2.03;1.00;;;;;;;;;;10498739;28;20043;-77
2022/07/10 18:17:18;;;;;;;4.68;2.00;;;;;;;;;;10484473;28;20473;-77
2022/07/10 18:22:20;;;;;;;2.90;1.20;;;;;;;;;;10493172;28;20083;-75
2022/07/10 18:27:24;;;;;;;;;;;;;;;;;;10483651;28;20036;-76
2022/07/10 18:37:44;;;;;;;9.15;2.30;;;;;;;;;;10484589;28;20093;-76
2022/07/10 18:42:47;;;;;;;1.97;1.03;;;;;;;;;;10466793;28;20068;-76
2022/07/10 18:47:51;;;;;;;2.70;1.00;;;;;;;;;;10468793;28;20078;-76
2022/07/10 18:52:54;;;;;;;4.10;1.98;;;;;;;;;;10490751;28;20108;-76
2022/07/10 18:57:57;;;;;;;2.53;1.17;;;;;;;;;;10471696;28;20040;-77
2022/07/10 19:03:01;;;;;;;4.57;2.07;;;;;;;;;;10474579;28;20040;-75
2022/07/10 19:08:04;;;;;;;4.57;1.23;;;;;;;;;;10487463;28;20040;-76
2022/07/10 19:13:07;;;;;;;3.80;1.30;;;;;;;;;;10474303;28;20072;-75
2022/07/10 19:18:12;;;;;;;3.40;0.90;;;;;;;;;;10492462;28;20219;-76
2022/07/10 19:23:15;;;;;;;3.33;1.00;;;;;;;;;;10482259;28;20115;-77
2022/07/10 19:28:18;;;;;;;2.47;1.02;;;;;;;;;;10493343;28;20035;-77
2022/07/10 19:33:23;;;;;;;6.65;1.02;;;;;;;;;;10486546;28;20036;-77
2022/07/10 19:38:27;;;;;;;2.55;1.50;;;;;;;;;;10485483;28;20476;-80
2022/07/10 19:43:30;;;;;;;2.55;1.60;;;;;;;;;;10497731;28;20036;-76
2022/07/10 19:48:34;;;;;;;3.38;1.52;;;;;;;;;;10469839;28;20036;-77
2022/07/10 19:53:37;;;;;;;8.70;3.47;;;;;;;;;;10475221;28;20464;-77
2022/07/10 19:58:40;;;;;;;3.50;1.50;;;;;;;;;;10490793;28;20086;-75
2022/07/10 20:03:44;;;;;;;7.25;2.80;;;;;;;;;;10475574;28;20043;-75
2022/07/10 20:08:48;;;;;;;2.17;1.20;;;;;;;;;;10483181;28;20122;-76
2022/07/10 20:13:50;;;;;;;;;;;;;;;;;;10467627;28;20040;-75
2022/07/10 20:18:56;;;;;;;4.05;1.90;;;;;;;;;;10469534;28;20260;-76
2022/07/10 20:23:58;;;;;;;3.85;1.70;;;;;;;;;;10485288;28;20068;-76
2022/07/10 20:29:01;;;;;;;7.30;2.63;;;;;;;;;;10498963;28;20489;-77
2022/07/10 20:34:05;;;;;;;3.65;1.77;;;;;;;;;;10474682;28;20124;-77
2022/07/10 20:39:08;;;;;;;4.70;1.52;;;;;;;;;;10476183;28;20067;-77
2022/07/10 20:44:10;;;;;;;3.30;1.30;;;;;;;;;;10493747;28;20102;-75
2022/07/10 20:49:15;;;;;;;3.90;1.55;;;;;;;;;;10491322;28;20047;-76
2022/07/10 20:54:18;;;;;;;4.30;1.88;;;;;;;;;;10476632;28;20065;-76
2022/07/10 20:59:20;;;;;;;3.47;1.38;;;;;;;;;;10467146;28;20068;-77
2022/07/10 21:04:24;;;;;;;3.53;1.33;;;;;;;;;;10494527;28;20028;-77
2022/07/10 21:09:29;;;;;;;1.83;1.13;;;;;;;;;;10490404;28;20041;-76
2022/07/10 21:14:31;;;;;;;4.03;1.30;;;;;;;;;;10491952;28;20036;-76
2022/07/10 21:19:36;;;;;;;2.42;1.05;;;;;;;;;;10490597;28;20052;-76
2022/07/10 21:24:38;;;;;;;3.40;1.00;;;;;;;;;;10483354;28;20507;-74
2022/07/10 21:29:41;;;;;;;4.33;1.20;;;;;;;;;;10470410;28;20040;-77
2022/07/10 21:34:45;;;;;;;2.72;1.30;;;;;;;;;;10483677;28;20118;-76
2022/07/10 21:39:49;;;;;;;2.65;1.40;;;;;;;;;;10480385;28;20044;-75
2022/07/10 21:44:52;;;;;;;2.50;1.77;;;;;;;;;;10489923;28;20384;-77
2022/07/10 21:49:57;;;;;;;7.68;2.20;;;;;;;;;;10494146;28;20072;-76
2022/07/10 21:55:00;;;;;;;2.22;1.40;;;;;;;;;;10474440;28;20029;-76
2022/07/10 22:00:03;;;;;;;3.85;1.33;;;;;;;;;;10490246;28;20033;-77
2022/07/10 22:05:08;;;;;;;3.83;1.25;;;;;;;;;;10482882;28;20090;-76
2022/07/10 22:10:11;;;;;;;4.25;1.42;;;;;;;;;;10497516;28;20040;-77
2022/07/10 22:15:14;;;;;;;4.17;1.63;;;;;;;;;;10478202;28;20045;-76
2022/07/10 22:20:18;;;;;;;3.25;1.15;;;;;;;;;;10498572;28;20082;-75
2022/07/10 22:25:21;;;;;;;2.78;1.40;;;;;;;;;;10499622;28;20111;-76
2022/07/10 22:35:45;;;;;;;2.33;1.40;;;;;;;;;;10493780;28;20037;-74
2022/07/10 22:40:48;;;;;;;3.80;1.50;;;;;;;;;;10508490;28;20420;-75
2022/07/10 22:45:51;;;;;;;5.53;1.58;;;;;;;;;;10471423;28;20070;-75
2022/07/10 22:50:55;;;;;;;3.80;1.50;;;;;;;;;;10503754;28;20051;-76
2022/07/10 22:56:10;;;;;;;4.45;1.50;;;;;;;;;;10503612;28;20120;-76
2022/07/10 23:01:13;;;;;;;2.63;1.40;;;;;;;;;;10497310;28;20044;-77
2022/07/10 23:06:20;;;;;;;7.72;2.10;;;;;;;;;;10476180;28;20097;-76
2022/07/10 23:11:23;;;;;;;3.13;1.52;;;;;;;;;;10494606;28;20032;-74
2022/07/10 23:16:26;;;;;;;2.65;1.50;;;;;;;;;;10494946;28;20077;-77
2022/07/10 23:21:30;;;;;;;5.35;1.48;;;;;;;;;;10477578;28;20173;-76
2022/07/10 23:26:33;;;;;;;2.90;1.52;;;;;;;;;;10496319;28;20036;-76
2022/07/10 23:31:36;;;;;;;5.32;2.10;;;;;;;;;;10497213;28;20032;-76
2022/07/10 23:36:40;;;;;;;2.67;1.58;;;;;;;;;;10479640;28;20051;-76
2022/07/10 23:41:42;;;;;;;6.35;1.60;;;;;;;;;;10496414;28;20115;-77
2022/07/10 23:46:45;;;;;;;7.00;1.60;;;;;;;;;;10471629;28;20060;-76
2022/07/10 23:51:49;;;;;;;2.28;1.45;;;;;;;;;;10473343;28;20545;-76
2022/07/10 23:56:52;;;;;;;4.10;1.80;;;;;;;;;;10492832;28;20041;-76
